createdAt,value
2022-09-03T00:00:33.279Z,99937.99
2022-09-03T00:06:05.331Z,99941.67
2022-09-03T00:11:29.059Z,99940.30
2022-09-03T00:16:47.387Z,99941.23
2022-09-03T00:22:05.739Z,99933.52
2022-09-03T00:27:17.550Z,99927.38
2022-09-03T00:32:44.250Z,99922.75
2022-09-03T00:37:48.067Z,99925.48
2022-09-03T00:43:35.074Z,99923.73
2022-09-03T00:49:19.845Z,99921.16
2022-09-03T00:54:47.036Z,99924.86
2022-09-03T01:00:13.050Z,99929.08
2022-09-03T01:06:09.364Z,99934.35
2022-09-03T01:11:49.494Z,99933.71
2022-09-03T01:17:13.431Z,99940.54
2022-09-03T01:22:45.401Z,99940.63
2022-09-03T01:28:33.631Z,99936.33
2022-09-03T01:33:50.700Z,99937.13
2022-09-03T01:39:00.019Z,99938.88
2022-09-03T01:44:10.299Z,99942.09
2022-09-03T01:49:42.717Z,99937.75
2022-09-03T01:55:16.727Z,99936.89
2022-09-03T02:00:20.875Z,99939.13
2022-09-03T02:05:27.776Z,99936.02
2022-09-03T02:11:02.930Z,99933.20
2022-09-03T02:16:36.283Z,99928.13
2022-09-03T02:21:54.875Z,99927.14
2022-09-03T02:26:57.931Z,99926.76
2022-09-03T02:32:00.999Z,99924.52
2022-09-03T02:37:17.929Z,99921.42
2022-09-03T02:42:21.075Z,99914.61
2022-09-03T02:47:32.157Z,99916.13
2022-09-03T02:52:35.220Z,99914.16
2022-09-03T02:57:38.388Z,99916.88
2022-09-03T03:02:43.446Z,99919.52
2022-09-03T03:07:46.523Z,99915.24
2022-09-03T03:12:49.591Z,99910.92
2022-09-03T03:17:52.621Z,99910.75
2022-09-03T03:22:55.640Z,99916.19
2022-09-03T03:27:59.180Z,99921.80
2022-09-03T03:33:02.207Z,99925.17
2022-09-03T03:38:07.482Z,99925.81
2022-09-03T03:43:10.515Z,99925.16
2022-09-03T03:48:13.569Z,99928.45
2022-09-03T03:53:16.644Z,99924.91
2022-09-03T03:58:19.820Z,99920.70
2022-09-03T04:03:22.947Z,99922.45
2022-09-03T04:08:29.813Z,99929.51
2022-09-03T04:13:38.804Z,99936.58
2022-09-03T04:18:43.217Z,99934.41
2022-09-03T04:23:48.874Z,99926.22
2022-09-03T04:28:52.395Z,99935.52
2022-09-03T04:33:55.591Z,99936.52
2022-09-03T04:39:01.892Z,99932.50
2022-09-03T04:44:04.990Z,99932.77
2022-09-03T04:49:09.656Z,99935.96
2022-09-03T04:54:12.718Z,99935.86
2022-09-03T04:59:15.795Z,99935.11
2022-09-03T05:04:19.890Z,99935.67
2022-09-03T05:09:22.985Z,99937.00
2022-09-03T05:14:25.981Z,99937.57
2022-09-03T05:19:29.490Z,99938.40
2022-09-03T05:24:32.419Z,99940.86
2022-09-03T05:29:35.479Z,99950.25
2022-09-03T05:34:39.204Z,99952.41
2022-09-03T05:39:42.334Z,99951.73
2022-09-03T05:44:45.440Z,99950.02
2022-09-03T05:49:48.522Z,99952.02
2022-09-03T05:54:51.592Z,99954.14
2022-09-03T05:59:54.636Z,99951.45
2022-09-03T06:04:57.868Z,99959.02
2022-09-03T06:10:00.965Z,99945.66
2022-09-03T06:15:06.123Z,99950.69
2022-09-03T06:20:10.244Z,99958.23
2022-09-03T06:25:15.897Z,99959.08
2022-09-03T06:30:20.884Z,99959.41
2022-09-03T06:35:24.023Z,99963.20
2022-09-03T06:40:27.685Z,99961.09
2022-09-03T06:45:31.666Z,99956.98
2022-09-03T06:50:34.932Z,99962.80
2022-09-03T06:55:40.280Z,99961.75
2022-09-03T07:00:44.905Z,99965.40
2022-09-03T07:05:48.785Z,99967.59
2022-09-03T07:10:51.858Z,99966.20
2022-09-03T07:16:04.839Z,99968.57
2022-09-03T07:21:12.194Z,99972.30
2022-09-03T07:26:26.552Z,99973.61
2022-09-03T07:31:33.735Z,99971.03
2022-09-03T07:36:43.175Z,99968.20
2022-09-03T07:41:47.339Z,99974.04
2022-09-03T07:46:51.681Z,99974.34
2022-09-03T07:51:55.256Z,99974.31
2022-09-03T07:56:59.325Z,99973.77
2022-09-03T08:02:02.425Z,99980.80
2022-09-03T08:07:05.547Z,99979.60
2022-09-03T08:12:08.733Z,99979.78
2022-09-03T08:17:12.887Z,99975.77
2022-09-03T08:22:15.969Z,99975.83
2022-09-03T08:27:26.349Z,99983.80
2022-09-03T08:32:29.461Z,99977.67
2022-09-03T08:37:33.335Z,99975.27
2022-09-03T08:43:08.575Z,99970.40
2022-09-03T08:48:23.766Z,99973.90
2022-09-03T08:53:42.212Z,99963.84
2022-09-03T08:58:45.397Z,99962.52
2022-09-03T09:04:07.084Z,99958.79
2022-09-03T09:09:15.827Z,99950.17
2022-09-03T09:14:32.734Z,99948.92
2022-09-03T09:20:21.656Z,99955.38
2022-09-03T09:25:26.641Z,99950.45
2022-09-03T09:30:32.635Z,99952.29
2022-09-03T09:35:36.014Z,99952.02
2022-09-03T09:40:44.755Z,99943.66
2022-09-03T09:46:06.286Z,99946.98
2022-09-03T09:51:38.944Z,99947.14
2022-09-03T09:56:44.827Z,99947.85
2022-09-03T10:01:48.007Z,99948.20
2022-09-03T10:07:08.183Z,99945.13
2022-09-03T10:12:31.490Z,99934.42
2022-09-03T10:18:10.142Z,99931.10
2022-09-03T10:23:50.426Z,99931.30
2022-09-03T10:29:07.320Z,99925.78
2022-09-03T10:34:23.524Z,99927.06
2022-09-03T10:39:32.106Z,99931.36
2022-09-03T10:45:10.327Z,99926.91
2022-09-03T10:51:18.199Z,99931.69
2022-09-03T10:56:29.778Z,99923.70
2022-09-03T11:01:57.469Z,99929.35
2022-09-03T11:07:12.972Z,99928.07
2022-09-03T11:12:31.966Z,99929.49
2022-09-03T11:18:18.272Z,99920.89
2022-09-03T11:23:24.481Z,99926.16
2022-09-03T11:28:45.491Z,99921.58
2022-09-03T11:33:57.111Z,99914.43
2022-09-03T11:39:00.890Z,99910.73
2022-09-03T11:44:20.354Z,99907.02
2022-09-03T11:49:31.514Z,99897.62
2022-09-03T11:54:45.880Z,99896.53
2022-09-03T11:59:49.241Z,99885.67
2022-09-03T12:05:06.502Z,99882.20
2022-09-03T12:10:51.162Z,99880.95
2022-09-03T12:16:37.775Z,99869.06
2022-09-03T12:21:41.775Z,99860.89
2022-09-03T12:26:45.005Z,99853.84
2022-09-03T12:31:51.121Z,99851.04
2022-09-03T12:36:55.695Z,99850.65
2022-09-03T12:42:09.550Z,99841.58
2022-09-03T12:52:46.850Z,99835.94
2022-09-03T12:58:04.318Z,99834.19
2022-09-03T13:03:13.227Z,99831.30
2022-09-03T13:08:23.900Z,99825.17
2022-09-03T13:13:32.199Z,99820.83
2022-09-03T13:18:44.872Z,99821.55
2022-09-03T13:24:03.430Z,99817.45
2022-09-03T13:29:39.806Z,99820.16
2022-09-03T13:34:57.483Z,99807.05
2022-09-03T13:40:31.787Z,99806.14
2022-09-03T13:45:52.510Z,99810.56
2022-09-03T13:51:32.490Z,99809.88
2022-09-03T13:57:09.269Z,99809.38
2022-09-03T14:02:27.319Z,99799.85
2022-09-03T14:07:57.446Z,99801.90
2022-09-03T14:13:11.775Z,99796.92
2022-09-03T14:18:52.963Z,99798.74
2022-09-03T14:24:09.610Z,99796.19
2022-09-03T14:29:12.560Z,99798.13
2022-09-03T14:34:43.235Z,99798.46
2022-09-03T14:40:03.878Z,99802.46
2022-09-03T14:45:30.491Z,99801.86
2022-09-03T14:51:19.937Z,99799.11
2022-09-03T14:56:39.070Z,99797.69
2022-09-03T15:01:45.144Z,99799.61
2022-09-03T15:07:06.884Z,99801.52
2022-09-03T15:12:40.692Z,99800.31
2022-09-03T15:18:06.875Z,99798.52
2022-09-03T15:23:25.047Z,99797.42
2022-09-03T15:29:05.032Z,99798.16
2022-09-03T15:34:36.509Z,99802.64
2022-09-03T15:39:44.567Z,99798.64
2022-09-03T15:44:55.161Z,99796.00
2022-09-03T15:50:03.594Z,99799.20
2022-09-03T15:55:32.228Z,99802.45
2022-09-03T16:01:11.527Z,99813.11
2022-09-03T16:07:11.606Z,99810.80
2022-09-03T16:13:04.887Z,99809.96
2022-09-03T16:18:26.319Z,99812.45
2022-09-03T16:23:46.932Z,99819.08
2022-09-03T16:29:03.186Z,99824.73
2022-09-03T16:34:19.073Z,99827.90
2022-09-03T16:40:13.669Z,99829.24
2022-09-03T16:46:06.965Z,99833.33
2022-09-03T16:51:46.651Z,99840.84
2022-09-03T16:57:19.396Z,99844.88
2022-09-03T17:02:41.826Z,99846.41
2022-09-03T17:07:59.255Z,99852.01
2022-09-03T17:13:32.801Z,99852.52
2022-09-03T17:18:59.187Z,99849.83
2022-09-03T17:24:22.605Z,99850.94
2022-09-03T17:29:53.867Z,99853.80
2022-09-03T17:35:02.586Z,99853.46
2022-09-03T17:40:49.605Z,99860.75
2022-09-03T17:46:10.836Z,99870.02
2022-09-03T17:51:46.559Z,99878.00
2022-09-03T17:57:24.845Z,99880.55
2022-09-03T18:02:45.771Z,99889.09
2022-09-03T18:08:24.085Z,99891.96
2022-09-03T18:13:42.423Z,99889.81
2022-09-03T18:18:53.656Z,99889.77
2022-09-03T18:24:35.175Z,99888.98
2022-09-03T18:30:20.117Z,99895.58
2022-09-03T18:35:45.738Z,99900.32
2022-09-03T18:41:31.709Z,99904.23
2022-09-03T18:48:02.256Z,99901.65
2022-09-03T18:53:02.172Z,99903.48
2022-09-03T18:58:36.391Z,99905.52
2022-09-03T19:04:03.115Z,99906.98
2022-09-03T19:10:04.757Z,99915.02
2022-09-03T19:16:06.343Z,99915.11
2022-09-03T19:21:49.610Z,99916.52
2022-09-03T19:27:51.768Z,99915.05
2022-09-03T19:33:30.717Z,99920.05
2022-09-03T19:39:32.973Z,99924.71
2022-09-03T19:45:43.070Z,99925.98
2022-09-03T19:51:28.974Z,99930.70
2022-09-03T19:56:50.543Z,99943.58
2022-09-03T20:02:12.116Z,99947.78
2022-09-03T20:07:35.221Z,99947.98
2022-09-03T20:12:44.586Z,99952.70
2022-09-03T20:17:53.748Z,99957.99
2022-09-03T20:23:03.434Z,99956.54
2022-09-03T20:28:45.616Z,99960.65
2022-09-03T20:34:14.675Z,99957.93
2022-09-03T20:39:36.072Z,99965.68
2022-09-03T20:44:54.442Z,99966.41
2022-09-03T20:50:23.211Z,99970.73
2022-09-03T20:55:50.197Z,99971.74
2022-09-03T21:00:58.224Z,99972.55
2022-09-03T21:06:20.405Z,99977.52
2022-09-03T21:11:47.434Z,99973.91
2022-09-03T21:17:30.986Z,99968.77
2022-09-03T21:23:25.937Z,99971.77
2022-09-03T21:28:40.868Z,99969.81
2022-09-03T21:33:51.510Z,99976.83
2022-09-03T21:39:06.265Z,99975.39
2022-09-03T21:44:20.946Z,99970.97
2022-09-03T21:49:35.906Z,99971.54
2022-09-03T21:54:40.353Z,99977.11
2022-09-03T22:00:12.285Z,99978.65
2022-09-03T22:05:18.605Z,99981.18
2022-09-03T22:10:47.354Z,99982.30
2022-09-03T22:15:57.835Z,99981.20
2022-09-03T22:21:13.481Z,99986.52
2022-09-03T22:26:36.207Z,99989.77
2022-09-03T22:32:11.673Z,99983.65
2022-09-03T22:37:34.867Z,99985.58
2022-09-03T22:42:52.789Z,99992.24
2022-09-03T22:48:26.588Z,99992.45
2022-09-03T22:53:43.877Z,99994.11
2022-09-03T22:59:13.181Z,99993.48
2022-09-03T23:04:36.947Z,99995.89
2022-09-03T23:09:44.471Z,99999.16
2022-09-03T23:14:54.236Z,100003.67
2022-09-03T23:20:26.720Z,100006.36
2022-09-03T23:25:41.309Z,100013.73
2022-09-03T23:30:44.397Z,100015.85
2022-09-03T23:36:31.626Z,100025.38
2022-09-03T23:42:11.294Z,100028.79
2022-09-03T23:47:54.796Z,100028.04
2022-09-03T23:53:09.309Z,100023.25
2022-09-03T23:58:42.209Z,100022.89
